Pride Of Canterbury — MPQZ6 — position and weather

sailwx.info

Track history (hours):
 
Tides and Currents Weather Stations Pressure Air Temp Water Temp Dewpoint Dewpoint Depression Visibility Wind Speed Wind Dir Waves Ship Positions

Pride Of Canterbury

Operator: P & O Ferries

Last reported at 2018-Sep-24 21:31 UTC. Time now 2018-Sep-24 21:37 UTC.
Position N 51°03' E 001°28'.

Length 180 m; draft 5.7 m.

Type: Passenger vessel. MMSI: 232001060.

Date/timePositionNaut miles runAvg speedWind from/ knotsBaromVisibWave heightAir tempDewpointWater temp
2018-Sep-24 21:31N 51°03' E 001°28'714.2
2018-Sep-24 21:03N 51°07' E 001°20'0 0.0
2018-Sep-24 21:00N 51°07' E 001°20'0 0.0
2018-Sep-24 20:30N 51°07' E 001°20'0 0.1
2018-Sep-24 20:03N 51°07' E 001°20'0 1.6
2018-Sep-24 19:59N 51°07' E 001°20'715.1
2018-Sep-24 19:31N 51°04' E 001°30'817.0
2018-Sep-24 19:03N 51°00' E 001°41'117.2
2018-Sep-24 19:00N 50°60' E 001°42'6 9.6
2018-Sep-24 18:22N 50°58' E 001°51'0 0.0
2018-Sep-24 17:58N 50°58' E 001°51'2 3.5
2018-Sep-24 17:31N 50°58' E 001°48'715.7
2018-Sep-24 17:03N 51°00' E 001°38'117.7
2018-Sep-24 17:00N 51°01' E 001°36'918.3
2018-Sep-24 16:30N 51°06' E 001°24'3 6.9
2018-Sep-24 16:03N 51°07' E 001°20'0 0.0
2018-Sep-24 16:00N 51°07' E 001°20'0 0.2
2018-Sep-24 15:28N 51°07' E 001°20'615.2
2018-Sep-24 15:03N 51°06' E 001°30'118.5
2018-Sep-24 15:00N 51°05' E 001°31'918.3
2018-Sep-24 14:30N 50°60' E 001°43'6 6.5
2018-Sep-24 13:40N 50°58' E 001°51'0 0.0
2018-Sep-24 13:11N 50°58' E 001°51'0 3.0
2018-Sep-24 13:02N 50°58' E 001°50'011.2
2018-Sep-24 13:00N 50°58' E 001°50'1019.2
2018-Sep-24 12:30N 51°01' E 001°35'919.9
2018-Sep-24 12:03N 51°06' E 001°24'120.0
2018-Sep-24 12:00N 51°07' E 001°22'2 2.1
2018-Sep-24 11:14N 51°07' E 001°20'0 2.1
2018-Sep-24 11:03N 51°07' E 001°20'0 1.1
2018-Sep-24 11:01N 51°07' E 001°20'816.2
2018-Sep-24 10:31N 51°04' E 001°32'818.4
2018-Sep-24 10:03N 50°59' E 001°43'118.0
2018-Sep-24 10:01N 50°59' E 001°44'5 7.1
2018-Sep-24 09:22N 50°58' E 001°51'0 0.0
2018-Sep-24 09:00N 50°58' E 001°51'4 7.7
2018-Sep-24 08:30N 50°58' E 001°45'817.1
2018-Sep-24 08:03N 51°00' E 001°33'119.2
2018-Sep-24 08:00N 51°01' E 001°32'918.6
2018-Sep-24 07:30N 51°07' E 001°21'1 0.6
2018-Sep-24 06:19N 51°07' E 001°20'1 3.5
2018-Sep-24 06:04N 51°07' E 001°22'118.0
2018-Sep-24 06:01N 51°07' E 001°23'918.1
2018-Sep-24 05:30N 51°03' E 001°36'817.6
2018-Sep-24 05:04N 50°58' E 001°46'119.3
2018-Sep-24 05:01N 50°58' E 001°47'2 4.7
2018-Sep-24 04:30N 50°58' E 001°51'0 0.0
2018-Sep-24 04:03N 50°58' E 001°51'0 0.0
2018-Sep-24 04:00N 50°58' E 001°51'1 2.9
2018-Sep-24 03:30N 50°58' E 001°49'715.0
2018-Sep-24 03:03N 51°00' E 001°39'116.5
2018-Sep-24 03:00N 51°01' E 001°38'816.6
2018-Sep-24 02:30N 51°05' E 001°26'4 9.8
2018-Sep-24 02:03N 51°07' E 001°20'0 0.0
2018-Sep-24 02:00N 51°07' E 001°20'0 0.0
2018-Sep-24 01:30N 51°07' E 001°20'1 2.7
2018-Sep-24 01:03N 51°07' E 001°22'116.4
2018-Sep-24 01:00N 51°07' E 001°23'815.2
2018-Sep-24 00:30N 51°03' E 001°34'714.8
2018-Sep-24 00:03N 50°59' E 001°42'114.8
2018-Sep-24 00:00N 50°59' E 001°43'5 8.5
2018-Sep-23 23:26N 50°58' E 001°51'0 0.0
2018-Sep-23 22:59N 50°58' E 001°51'0 0.1
2018-Sep-23 22:27N 50°58' E 001°51'614.4
2018-Sep-23 22:04N 50°59' E 001°42'219.6
2018-Sep-23 21:57N 51°01' E 001°40'919.6
2018-Sep-23 21:31N 51°04' E 001°27'512.1
2018-Sep-23 21:03N 51°07' E 001°20'0 0.0
2018-Sep-23 21:00N 51°07' E 001°20'0 0.3
2018-Sep-23 20:30N 51°07' E 001°20'716.1
2018-Sep-23 20:04N 51°04' E 001°31'117.9
2018-Sep-23 20:00N 51°04' E 001°32'918.3
2018-Sep-23 19:30N 50°59' E 001°44'5 8.8
2018-Sep-23 18:59N 50°58' E 001°51'0 0.1
2018-Sep-23 18:27N 50°58' E 001°51'512.7
2018-Sep-23 18:04N 50°58' E 001°43'117.4
2018-Sep-23 18:01N 50°58' E 001°42'918.6
2018-Sep-23 17:31N 51°03' E 001°29'715.7
2018-Sep-23 17:03N 51°07' E 001°20'0 0.0
2018-Sep-23 17:00N 51°07' E 001°20'0 0.2
2018-Sep-23 16:30N 51°07' E 001°20'512.6
2018-Sep-23 16:03N 51°06' E 001°29'118.7
2018-Sep-23 16:00N 51°06' E 001°30'917.5
2018-Sep-23 15:30N 50°60' E 001°40'715.8
2018-Sep-23 15:03N 50°58' E 001°51'0 1.7
2018-Sep-23 14:59N 50°58' E 001°51'0 0.0
2018-Sep-23 14:00N 50°58' E 001°51'611.4
2018-Sep-23 13:31N 50°58' E 001°42'1 1.6
2018-Sep-23 13:03N 50°59' E 001°41'0 6.0
2018-Sep-23 13:00N 50°59' E 001°41'611.7
2018-Sep-23 12:31N 51°02' E 001°33'919.1
2018-Sep-23 12:02N 51°07' E 001°21'113.0
2018-Sep-23 12:00N 51°07' E 001°21'0 0.6
2018-Sep-23 11:29N 51°07' E 001°20'0 0.3
2018-Sep-23 11:02N 51°07' E 001°20'0 2.1
2018-Sep-23 11:00N 51°07' E 001°20'714.8
2018-Sep-23 10:30N 51°05' E 001°31'817.8
2018-Sep-23 10:03N 51°00' E 001°41'118.0
2018-Sep-23 10:00N 50°60' E 001°42'611.3
2018-Sep-23 09:30N 50°58' E 001°51'0 0.1
2018-Sep-23 08:35N 50°58' E 001°51'1 8.8
2018-Sep-23 08:30N 50°58' E 001°50'818.6
2018-Sep-23 08:03N 50°59' E 001°37'119.0
2018-Sep-23 08:00N 50°60' E 001°35'1019.1
2018-Sep-23 07:30N 51°06' E 001°24'3 5.8
2018-Sep-23 07:03N 51°07' E 001°20'0 0.0
2018-Sep-23 07:00N 51°07' E 001°20'0 0.0
2018-Sep-23 06:31N 51°07' E 001°20'0 0.0
2018-Sep-23 06:03N 51°07' E 001°20'0 0.0
2018-Sep-23 06:00N 51°07' E 001°20'4 8.6
2018-Sep-23 05:30N 51°06' E 001°26'818.6
2018-Sep-23 05:04N 50°60' E 001°36'120.7
2018-Sep-23 05:00N 50°60' E 001°37'917.5
2018-Sep-23 04:31N 50°58' E 001°51'0 0.1
2018-Sep-23 03:54N 50°58' E 001°51'1 2.3
2018-Sep-23 03:31N 50°58' E 001°50'716.2
2018-Sep-23 03:03N 50°59' E 001°38'117.8
2018-Sep-23 03:01N 50°59' E 001°37'918.0
2018-Sep-23 02:30N 51°05' E 001°26'4 3.4
2018-Sep-23 01:15N 51°07' E 001°20'0 1.4
2018-Sep-23 01:03N 51°07' E 001°20'0 7.4
2018-Sep-23 01:01N 51°07' E 001°20'816.3
2018-Sep-23 00:30N 51°04' E 001°32'818.1
2018-Sep-23 00:04N 50°59' E 001°42'117.8
2018-Sep-23 00:01N 50°59' E 001°43'5 7.9
2018-Sep-22 23:23N 50°58' E 001°51'0 0.0
2018-Sep-22 22:59N 50°58' E 001°51'0 0.0
2018-Sep-22 22:31N 50°58' E 001°51'512.1
2018-Sep-22 22:03N 50°58' E 001°42'120.4
2018-Sep-22 21:59N 50°58' E 001°40'918.7
2018-Sep-22 21:31N 51°03' E 001°29'715.2
2018-Sep-22 21:03N 51°07' E 001°20'0 0.0
2018-Sep-22 21:00N 51°07' E 001°20'0 0.0
2018-Sep-22 20:30N 51°07' E 001°20'2 5.0
2018-Sep-22 20:04N 51°07' E 001°24'119.4
2018-Sep-22 20:01N 51°06' E 001°25'1019.5
2018-Sep-22 19:30N 51°01' E 001°38'818.1
2018-Sep-22 19:04N 50°58' E 001°50'0 9.9
2018-Sep-22 19:01N 50°58' E 001°51'1 0.8
2018-Sep-22 18:15N 50°58' E 001°52'0 0.1
2018-Sep-22 18:03N 50°58' E 001°52'0 2.3
2018-Sep-22 18:00N 50°58' E 001°51'510.4
2018-Sep-22 17:30N 50°58' E 001°43'817.7
2018-Sep-22 17:04N 51°02' E 001°32'118.5
2018-Sep-22 17:01N 51°02' E 001°31'916.6
2018-Sep-22 16:29N 51°07' E 001°20'0 0.0
2018-Sep-22 16:03N 51°07' E 001°20'0 0.0
2018-Sep-22 15:49N 51°07' E 001°20'2 7.4
2018-Sep-22 15:30N 51°07' E 001°24'919.2
2018-Sep-22 15:03N 51°02' E 001°35'119.2
2018-Sep-22 15:00N 51°02' E 001°37'918.0
2018-Sep-22 14:31N 50°58' E 001°50'1 1.0
2018-Sep-22 13:19N 50°58' E 001°52'2 8.6
2018-Sep-22 13:03N 50°58' E 001°48'119.3
2018-Sep-22 13:00N 50°58' E 001°47'1019.0
2018-Sep-22 12:30N 51°02' E 001°33'919.4
2018-Sep-22 12:03N 51°07' E 001°22'115.5
2018-Sep-22 12:00N 51°07' E 001°21'0 0.6
2018-Sep-22 11:30N 51°07' E 001°20'0 0.7
2018-Sep-22 11:02N 51°07' E 001°20'0 1.2
2018-Sep-22 11:00N 51°07' E 001°20'816.2
2018-Sep-22 10:30N 51°04' E 001°32'818.2
2018-Sep-22 10:03N 50°59' E 001°43'117.6
2018-Sep-22 10:00N 50°59' E 001°44'4 4.8
2018-Sep-22 09:07N 50°58' E 001°51'0 0.0
2018-Sep-22 09:02N 50°58' E 001°51'0 0.4
2018-Sep-22 08:40N 50°58' E 001°51'214.1
2018-Sep-22 08:30N 50°58' E 001°47'919.1
2018-Sep-22 08:04N 50°59' E 001°34'118.1
2018-Sep-22 08:00N 51°00' E 001°33'816.3
2018-Sep-22 07:31N 51°06' E 001°24'3 5.9
2018-Sep-22 07:02N 51°07' E 001°20'0 0.0
2018-Sep-22 07:00N 51°07' E 001°20'0 0.0
2018-Sep-22 06:30N 51°07' E 001°20'0 0.2
2018-Sep-22 06:03N 51°07' E 001°20'0 0.9
2018-Sep-22 06:00N 51°07' E 001°20'816.0
2018-Sep-22 05:31N 51°03' E 001°31'919.1
2018-Sep-22 05:03N 50°59' E 001°43'119.3
2018-Sep-22 05:00N 50°58' E 001°44'4 8.3
2018-Sep-22 04:29N 50°58' E 001°51'0 0.0
2018-Sep-22 03:59N 50°58' E 001°51'1 1.9
2018-Sep-22 03:30N 50°58' E 001°50'716.2
2018-Sep-22 03:03N 50°59' E 001°38'117.9
2018-Sep-22 03:00N 50°59' E 001°37'917.9
2018-Sep-22 02:30N 51°04' E 001°25'4 8.1
2018-Sep-22 01:57N 51°07' E 001°20'0 0.0
2018-Sep-22 01:30N 51°07' E 001°20'0 0.0
2018-Sep-22 01:03N 51°07' E 001°20'0 0.0
2018-Sep-22 01:00N 51°07' E 001°20'0 0.0
2018-Sep-22 00:30N 51°07' E 001°20'0 0.0
2018-Sep-22 00:03N 51°07' E 001°20'0 0.0
2018-Sep-22 00:00N 51°07' E 001°20'0 0.0
2018-Sep-21 23:30N 51°07' E 001°20'0 0.2
2018-Sep-21 23:02N 51°07' E 001°20'0 1.6
2018-Sep-21 23:01N 51°07' E 001°20'612.6
2018-Sep-21 22:31N 51°05' E 001°30'714.6
2018-Sep-21 22:04N 51°01' E 001°38'113.5
2018-Sep-21 22:01N 51°01' E 001°39'713.1
2018-Sep-21 21:30N 50°58' E 001°48'2 2.9
2018-Sep-21 20:56N 50°58' E 001°51'0 0.0
2018-Sep-21 20:25N 50°58' E 001°51'0 0.0
2018-Sep-21 19:53N 50°58' E 001°51'0 0.0
2018-Sep-21 19:22N 50°58' E 001°51'412.4
2018-Sep-21 19:03N 50°58' E 001°45'119.0
2018-Sep-21 19:00N 50°58' E 001°43'918.7
2018-Sep-21 18:30N 51°03' E 001°31'8 6.0
2018-Sep-21 17:10N 51°07' E 001°20'0 1.3
2018-Sep-21 17:02N 51°07' E 001°20'0 1.4
2018-Sep-21 17:00N 51°07' E 001°20'713.5
2018-Sep-21 16:30N 51°05' E 001°30'817.0
2018-Sep-21 16:03N 51°00' E 001°40'117.3
2018-Sep-21 16:00N 50°60' E 001°41'713.1
2018-Sep-21 15:30N 50°58' E 001°51'0 0.0
2018-Sep-21 15:03N 50°58' E 001°51'0 0.0
2018-Sep-21 14:58N 50°58' E 001°51'7 8.0
2018-Sep-21 14:03N 50°59' E 001°40'1018.9
2018-Sep-21 13:30N 51°05' E 001°26'5 4.2
2018-Sep-21 12:24N 51°07' E 001°20'1 3.9
2018-Sep-21 12:03N 51°07' E 001°22'116.7
2018-Sep-21 12:00N 51°07' E 001°24'917.3
2018-Sep-21 11:30N 51°02' E 001°35'817.0
2018-Sep-21 11:04N 50°58' E 001°45'115.9
2018-Sep-21 11:00N 50°58' E 001°47'3 4.2
2018-Sep-21 10:15N 50°58' E 001°52'0 0.0
2018-Sep-21 10:00N 50°58' E 001°52'2 4.3
2018-Sep-21 09:30N 50°58' E 001°48'919.0
2018-Sep-21 09:03N 51°01' E 001°35'218.8
2018-Sep-21 08:57N 51°02' E 001°33'818.9
2018-Sep-21 08:30N 51°07' E 001°22'1 1.4
2018-Sep-21 07:27N 51°07' E 001°20'3 8.4
2018-Sep-21 07:03N 51°07' E 001°25'117.2
2018-Sep-21 07:00N 51°07' E 001°27'815.5
2018-Sep-21 06:31N 51°03' E 001°37'715.7
2018-Sep-21 06:03N 50°58' E 001°46'116.7
2018-Sep-21 06:00N 50°58' E 001°47'3 5.7
2018-Sep-21 05:30N 50°58' E 001°52'0 0.0
2018-Sep-21 04:47N 50°58' E 001°52'2 8.2
2018-Sep-21 04:30N 50°58' E 001°48'817.0
2018-Sep-21 04:03N 50°60' E 001°36'117.8
2018-Sep-21 04:00N 51°00' E 001°35'918.0
2018-Sep-21 03:30N 51°05' E 001°23'3 2.2
2018-Sep-21 02:12N 51°07' E 001°20'0 1.1
2018-Sep-21 02:02N 51°07' E 001°20'0 1.4
2018-Sep-21 02:00N 51°07' E 001°20'3 5.0
2018-Sep-21 01:29N 51°07' E 001°24'3 7.1
2018-Sep-21 01:04N 51°06' E 001°28'114.4
2018-Sep-21 01:00N 51°05' E 001°29'714.9
2018-Sep-21 00:30N 51°01' E 001°39'614.0
2018-Sep-21 00:03N 50°58' E 001°48'115.1
2018-Sep-21 00:01N 50°58' E 001°49'1 2.3
2018-Sep-20 23:30N 50°58' E 001°51'0 0.0
2018-Sep-20 23:03N 50°58' E 001°51'0 0.1
2018-Sep-20 22:58N 50°58' E 001°51'0 0.1
2018-Sep-20 22:30N 50°58' E 001°51'716.0
2018-Sep-20 22:03N 50°58' E 001°40'118.7
2018-Sep-20 22:00N 50°59' E 001°38'918.8
2018-Sep-20 21:30N 51°03' E 001°26'5 5.7
2018-Sep-20 20:35N 51°07' E 001°20'0 0.0
2018-Sep-20 20:23N 51°07' E 001°20'3 9.9
2018-Sep-20 20:04N 51°06' E 001°25'118.6
2018-Sep-20 20:00N 51°06' E 001°26'1019.1
2018-Sep-20 19:30N 51°01' E 001°39'716.5
2018-Sep-20 19:03N 50°58' E 001°50'0 5.3
2018-Sep-20 19:01N 50°58' E 001°51'0 0.4
2018-Sep-20 18:29N 50°58' E 001°51'0 0.0
2018-Sep-20 17:56N 50°58' E 001°51'613.0
2018-Sep-20 17:30N 50°58' E 001°42'818.4
2018-Sep-20 17:04N 51°02' E 001°30'118.8
2018-Sep-20 17:01N 51°02' E 001°29'8 7.2
2018-Sep-20 15:57N 51°07' E 001°20'2 4.7
2018-Sep-20 15:30N 51°07' E 001°23'818.7
2018-Sep-20 15:03N 51°03' E 001°35'119.0
2018-Sep-20 15:00N 51°02' E 001°36'917.9
2018-Sep-20 14:30N 50°58' E 001°49'1 2.1
2018-Sep-20 14:00N 50°58' E 001°51'0 0.4
2018-Sep-20 13:18N 50°58' E 001°51'415.0
2018-Sep-20 13:03N 50°58' E 001°45'118.5
2018-Sep-20 13:00N 50°58' E 001°43'918.9
2018-Sep-20 12:30N 51°02' E 001°29'817.6
2018-Sep-20 12:03N 51°07' E 001°20'0 5.7
2018-Sep-20 12:00N 51°07' E 001°20'0 0.0
2018-Sep-20 11:24N 51°07' E 001°20'0 0.9
2018-Sep-20 11:03N 51°07' E 001°20'112.7
2018-Sep-20 11:00N 51°07' E 001°22'917.8
2018-Sep-20 10:30N 51°04' E 001°34'818.6
2018-Sep-20 10:03N 50°58' E 001°45'116.5
2018-Sep-20 10:00N 50°58' E 001°46'3 5.0
2018-Sep-20 09:22N 50°58' E 001°51'0 0.0
2018-Sep-20 08:55N 50°58' E 001°51'1 2.4
2018-Sep-20 08:31N 50°58' E 001°50'918.0
2018-Sep-20 08:02N 51°01' E 001°37'117.9
2018-Sep-20 08:00N 51°01' E 001°36'918.7
2018-Sep-20 07:30N 51°06' E 001°23'2 2.0
2018-Sep-20 06:20N 51°07' E 001°20'1 2.9
2018-Sep-20 06:03N 51°07' E 001°21'115.3
2018-Sep-20 06:01N 51°07' E 001°22'918.1
2018-Sep-20 05:31N 51°03' E 001°35'818.5
2018-Sep-20 05:03N 50°58' E 001°46'117.9
2018-Sep-20 05:01N 50°58' E 001°47'2 3.9
2018-Sep-20 04:24N 50°58' E 001°51'0 0.0
2018-Sep-20 04:00N 50°58' E 001°51'2 3.3
2018-Sep-20 03:30N 50°58' E 001°48'817.0
2018-Sep-20 03:03N 51°00' E 001°37'118.2
2018-Sep-20 03:00N 51°01' E 001°36'918.2
2018-Sep-20 02:30N 51°06' E 001°24'3 5.5
2018-Sep-20 02:00N 51°07' E 001°20'0 0.0
2018-Sep-20 01:28N 51°07' E 001°20'3 7.6
2018-Sep-20 01:04N 51°06' E 001°25'118.5
2018-Sep-20 01:01N 51°06' E 001°26'918.9
2018-Sep-20 00:30N 51°01' E 001°39'817.1
2018-Sep-20 00:04N 50°58' E 001°50'0 6.8
2018-Sep-20 00:01N 50°58' E 001°51'0 0.7
2018-Sep-19 23:30N 50°58' E 001°51'0 0.0
2018-Sep-19 23:02N 50°58' E 001°51'0 0.0
2018-Sep-19 23:01N 50°58' E 001°51'3 6.6
2018-Sep-19 22:30N 50°58' E 001°46'919.1
2018-Sep-19 22:03N 51°02' E 001°34'119.3
2018-Sep-19 22:00N 51°02' E 001°32'917.6
2018-Sep-19 21:29N 51°07' E 001°20'0 0.0
2018-Sep-19 21:03N 51°07' E 001°20'0 0.0
2018-Sep-19 21:00N 51°07' E 001°20'1 1.4
2018-Sep-19 20:31N 51°07' E 001°21'817.2
2018-Sep-19 20:03N 51°04' E 001°33'118.1
2018-Sep-19 20:00N 51°04' E 001°34'917.7
2018-Sep-19 19:30N 50°58' E 001°45'4 8.2
2018-Sep-19 19:01N 50°58' E 001°51'0 0.0
2018-Sep-19 19:00N 50°58' E 001°51'0 0.0
2018-Sep-19 18:27N 50°58' E 001°51'3 7.8
2018-Sep-19 18:04N 50°58' E 001°46'120.3
2018-Sep-19 18:01N 50°58' E 001°45'816.9
2018-Sep-19 17:30N 51°02' E 001°33'818.5
2018-Sep-19 17:04N 51°07' E 001°22'115.7
2018-Sep-19 17:00N 51°07' E 001°21'0 0.9
2018-Sep-19 16:30N 51°07' E 001°20'0 0.0
2018-Sep-19 16:02N 51°07' E 001°20'0 0.0
2018-Sep-19 16:00N 51°07' E 001°20'3 6.8
2018-Sep-19 15:30N 51°07' E 001°25'818.6
2018-Sep-19 15:03N 51°02' E 001°37'119.1
2018-Sep-19 15:00N 51°02' E 001°38'817.0
2018-Sep-19 14:30N 50°58' E 001°50'0 0.4
2018-Sep-19 13:30N 50°58' E 001°51'716.6
2018-Sep-19 13:03N 50°59' E 001°39'218.5
2018-Sep-19 12:56N 51°01' E 001°36'818.6
2018-Sep-19 12:30N 51°05' E 001°26'4 9.4
2018-Sep-19 12:03N 51°07' E 001°20'0 0.0
2018-Sep-19 12:01N 51°07' E 001°20'0 0.0
2018-Sep-19 11:30N 51°07' E 001°20'2 5.6
2018-Sep-19 11:04N 51°07' E 001°24'117.9
2018-Sep-19 11:01N 51°06' E 001°25'918.6
2018-Sep-19 10:30N 51°01' E 001°38'817.4
2018-Sep-19 10:03N 50°58' E 001°49'114.9
2018-Sep-19 10:00N 50°58' E 001°50'0 1.0
2018-Sep-19 09:30N 50°58' E 001°51'0 0.0
2018-Sep-19 09:00N 50°58' E 001°51'2 4.7
2018-Sep-19 08:29N 50°58' E 001°47'1018.3
2018-Sep-19 07:56N 51°02' E 001°32'818.5
2018-Sep-19 07:30N 51°07' E 001°22'2 3.4
2018-Sep-19 07:03N 51°07' E 001°20'0 0.0
2018-Sep-19 07:00N 51°07' E 001°20'0 0.0
2018-Sep-19 06:30N 51°07' E 001°20'1 1.8
2018-Sep-19 06:03N 51°07' E 001°21'115.8
2018-Sep-19 06:00N 51°07' E 001°22'918.4
2018-Sep-19 05:30N 51°03' E 001°35'818.1
2018-Sep-19 05:03N 50°58' E 001°46'117.2
2018-Sep-19 05:00N 50°58' E 001°47'2 4.3
2018-Sep-19 04:29N 50°58' E 001°51'0 0.0
2018-Sep-19 04:01N 50°58' E 001°51'0 0.0
2018-Sep-19 03:49N 50°58' E 001°51'0 0.0
2018-Sep-19 03:31N 50°58' E 001°51'0 0.0
2018-Sep-19 00:34N 50°58' E 001°51'0 0.2
2018-Sep-19 00:21N 50°58' E 001°51'311.9
2018-Sep-19 00:03N 50°58' E 001°45'117.5
2018-Sep-19 00:00N 50°58' E 001°44'918.4
2018-Sep-18 23:30N 51°02' E 001°31'818.5
2018-Sep-18 23:03N 51°07' E 001°20'0 0.2
2018-Sep-18 22:12N 51°07' E 001°20'1 6.2
2018-Sep-18 22:03N 51°07' E 001°22'118.2
2018-Sep-18 22:01N 51°07' E 001°23'918.9
2018-Sep-18 21:30N 51°03' E 001°36'818.2
2018-Sep-18 21:03N 50°58' E 001°47'118.6
2018-Sep-18 21:00N 50°58' E 001°49'1 2.6
2018-Sep-18 20:26N 50°58' E 001°51'0 0.1
2018-Sep-18 20:02N 50°58' E 001°51'0 4.7
2018-Sep-18 19:59N 50°58' E 001°51'818.0
2018-Sep-18 19:31N 50°59' E 001°37'818.0
2018-Sep-18 19:03N 51°04' E 001°27'118.1
2018-Sep-18 19:00N 51°05' E 001°27'5 3.2
2018-Sep-18 17:30N 51°07' E 001°20'4 8.7
2018-Sep-18 17:03N 51°07' E 001°26'0 7.2
2018-Sep-18 17:00N 51°07' E 001°27'816.0
2018-Sep-18 16:30N 51°02' E 001°37'716.6
2018-Sep-18 16:04N 50°58' E 001°47'116.2
2018-Sep-18 16:00N 50°58' E 001°48'2 3.2
2018-Sep-18 15:28N 50°58' E 001°51'0 0.0
2018-Sep-18 15:03N 50°58' E 001°51'0 0.0
2018-Sep-18 14:56N 50°58' E 001°51'1213.8
2018-Sep-18 14:03N 51°02' E 001°33'118.8
2018-Sep-18 14:00N 51°03' E 001°32'916.7
2018-Sep-18 13:29N 51°07' E 001°20'0 0.0
2018-Sep-18 12:42N 51°07' E 001°20'0 0.6
2018-Sep-18 12:25N 51°07' E 001°20'2 6.8
2018-Sep-18 12:04N 51°07' E 001°24'0 3.8
2018-Sep-18 12:00N 51°07' E 001°24'1 2.2
2018-Sep-18 11:31N 51°08' E 001°26'1 2.0
2018-Sep-18 11:04N 51°09' E 001°26'0 1.7
2018-Sep-18 11:01N 51°09' E 001°27'510.2
2018-Sep-18 10:30N 51°04' E 001°31'818.1
2018-Sep-18 10:04N 50°60' E 001°41'118.0
2018-Sep-18 10:01N 50°59' E 001°43'5 9.9
2018-Sep-18 09:28N 50°58' E 001°51'0 0.0
2018-Sep-18 09:03N 50°58' E 001°51'0 0.0
2018-Sep-18 08:52N 50°58' E 001°51'3 8.1
2018-Sep-18 08:30N 50°58' E 001°46'919.1
2018-Sep-18 08:02N 51°01' E 001°33'118.6
2018-Sep-18 08:00N 51°01' E 001°32'918.7
2018-Sep-18 07:31N 51°07' E 001°21'1 1.2
2018-Sep-18 06:57N 51°07' E 001°20'0 0.0
2018-Sep-18 06:28N 51°07' E 001°20'2 4.7
2018-Sep-18 06:03N 51°07' E 001°23'0 7.5
2018-Sep-18 06:00N 51°07' E 001°24'917.3
2018-Sep-18 05:30N 51°03' E 001°36'817.2
2018-Sep-18 05:03N 50°58' E 001°46'115.4
2018-Sep-18 05:00N 50°58' E 001°47'3 5.2
2018-Sep-18 04:30N 50°58' E 001°51'0 0.0
2018-Sep-18 04:03N 50°58' E 001°51'0 0.0
2018-Sep-18 04:00N 50°58' E 001°51'2 5.0
2018-Sep-18 03:30N 50°58' E 001°47'818.4
2018-Sep-18 03:03N 51°01' E 001°35'118.3
2018-Sep-18 03:00N 51°01' E 001°33'918.0
2018-Sep-18 02:30N 51°07' E 001°22'2 3.3
2018-Sep-18 02:03N 51°07' E 001°20'0 0.0
2018-Sep-18 02:00N 51°07' E 001°20'0 0.0
2018-Sep-18 01:30N 51°07' E 001°20'2 4.4
2018-Sep-18 01:03N 51°07' E 001°23'118.9
2018-Sep-18 01:00N 51°07' E 001°25'918.4
2018-Sep-18 00:30N 51°02' E 001°37'817.7
2018-Sep-18 00:03N 50°58' E 001°48'117.0
2018-Sep-18 00:00N 50°58' E 001°49'1 2.3
2018-Sep-17 23:30N 50°58' E 001°51'0 0.0
2018-Sep-17 23:03N 50°58' E 001°51'0 0.0
2018-Sep-17 23:00N 50°58' E 001°51'0 1.0
2018-Sep-17 22:31N 50°58' E 001°51'715.1
2018-Sep-17 22:03N 50°59' E 001°40'117.4
2018-Sep-17 22:00N 50°59' E 001°39'918.0
2018-Sep-17 21:30N 51°04' E 001°27'511.9
2018-Sep-17 21:04N 51°07' E 001°20'0 0.0
2018-Sep-17 21:01N 51°07' E 001°20'0 0.0
2018-Sep-17 20:31N 51°07' E 001°20'0 0.1
2018-Sep-17 20:03N 51°07' E 001°20'0 1.3
2018-Sep-17 20:00N 51°07' E 001°20'714.8
2018-Sep-17 19:30N 51°04' E 001°31'817.3
2018-Sep-17 19:04N 50°60' E 001°41'117.1
2018-Sep-17 19:00N 50°59' E 001°42'611.3
2018-Sep-17 18:30N 50°58' E 001°51'0 0.0
2018-Sep-17 18:02N 50°58' E 001°51'0 0.0
2018-Sep-17 17:46N 50°58' E 001°51'310.6
2018-Sep-17 17:31N 50°58' E 001°47'919.1
2018-Sep-17 17:03N 51°02' E 001°34'119.4
2018-Sep-17 17:01N 51°02' E 001°33'1019.0
2018-Sep-17 16:30N 51°07' E 001°20'1 1.3
2018-Sep-17 16:02N 51°07' E 001°20'0 0.0
2018-Sep-17 16:00N 51°07' E 001°20'0 0.2
2018-Sep-17 15:29N 51°07' E 001°20'717.0
2018-Sep-17 15:03N 51°05' E 001°31'119.1
2018-Sep-17 15:00N 51°04' E 001°32'918.9
2018-Sep-17 14:30N 50°58' E 001°44'4 8.8
2018-Sep-17 14:00N 50°58' E 001°51'0 0.0
2018-Sep-17 13:30N 50°58' E 001°51'2 4.5
2018-Sep-17 13:03N 50°58' E 001°48'117.2
2018-Sep-17 13:00N 50°58' E 001°46'816.4
2018-Sep-17 12:31N 51°01' E 001°34'817.3
2018-Sep-17 12:03N 51°05' E 001°25'117.4
2018-Sep-17 12:00N 51°06' E 001°23'3 5.0
2018-Sep-17 11:30N 51°07' E 001°20'0 0.3
2018-Sep-17 11:04N 51°07' E 001°20'0 8.9
2018-Sep-17 11:01N 51°07' E 001°21'917.2
2018-Sep-17 10:30N 51°03' E 001°33'818.0
2018-Sep-17 10:04N 50°59' E 001°44'116.9
2018-Sep-17 10:00N 50°58' E 001°45'4 7.6
2018-Sep-17 09:30N 50°58' E 001°51'0 0.0
2018-Sep-17 09:03N 50°58' E 001°51'0 0.0
2018-Sep-17 09:00N 50°58' E 001°51'3 5.9
2018-Sep-17 08:30N 50°58' E 001°46'716.5
2018-Sep-17 08:03N 50°60' E 001°35'117.3
2018-Sep-17 08:00N 50°60' E 001°34'917.2
2018-Sep-17 07:30N 51°06' E 001°23'3 5.9
2018-Sep-17 07:03N 51°07' E 001°20'0 0.0
2018-Sep-17 07:00N 51°07' E 001°20'0 0.2
2018-Sep-17 06:28N 51°07' E 001°20'513.1
2018-Sep-17 06:03N 51°06' E 001°28'116.0
2018-Sep-17 06:00N 51°05' E 001°29'816.0
2018-Sep-17 05:30N 51°01' E 001°40'614.0
2018-Sep-17 05:04N 50°58' E 001°49'113.0
2018-Sep-17 05:00N 50°58' E 001°50'1 1.3
2018-Sep-17 04:30N 50°58' E 001°51'0 0.0
2018-Sep-17 04:03N 50°58' E 001°51'0 0.0
2018-Sep-17 04:00N 50°58' E 001°51'2 4.8
2018-Sep-17 03:31N 50°58' E 001°48'817.4
2018-Sep-17 03:02N 51°01' E 001°35'117.4
2018-Sep-17 03:00N 51°02' E 001°35'917.1
2018-Sep-17 02:31N 51°06' E 001°24'3 5.5
2018-Sep-17 02:03N 51°07' E 001°20'0 0.0
2018-Sep-17 02:00N 51°07' E 001°20'0 0.0
2018-Sep-17 01:30N 51°07' E 001°20'1 1.8
2018-Sep-17 01:04N 51°07' E 001°21'115.5
2018-Sep-17 01:01N 51°07' E 001°23'917.4
2018-Sep-17 00:31N 51°03' E 001°35'613.8
2018-Sep-17 00:03N 50°59' E 001°43'113.4
2018-Sep-17 00:00N 50°59' E 001°43'5 9.8
2018-Sep-16 23:30N 50°58' E 001°51'0 0.0
2018-Sep-16 23:03N 50°58' E 001°51'0 0.0
2018-Sep-16 23:00N 50°58' E 001°51'0 0.7
2018-Sep-16 22:30N 50°58' E 001°51'714.7
2018-Sep-16 22:03N 50°58' E 001°40'116.0
2018-Sep-16 22:00N 50°58' E 001°39'816.9
2018-Sep-16 21:30N 51°04' E 001°29'714.4
2018-Sep-16 21:03N 51°07' E 001°20'0 0.0
2018-Sep-16 21:00N 51°07' E 001°20'0 0.0
2018-Sep-16 20:29N 51°07' E 001°20'1 3.3
2018-Sep-16 20:03N 51°07' E 001°22'116.8
2018-Sep-16 20:01N 51°07' E 001°24'715.0
2018-Sep-16 19:30N 51°07' E 001°35'715.1
2018-Sep-16 19:03N 51°01' E 001°41'116.6
2018-Sep-16 19:00N 51°00' E 001°42'612.4
2018-Sep-16 18:30N 50°58' E 001°51'0 0.2
2018-Sep-16 18:03N 50°58' E 001°51'0 0.0
2018-Sep-16 18:00N 50°58' E 001°51'0 0.2
2018-Sep-16 17:30N 50°58' E 001°51'816.8
2018-Sep-16 17:03N 50°59' E 001°39'120.0
2018-Sep-16 17:00N 50°60' E 001°37'918.6
2018-Sep-16 16:30N 51°05' E 001°26'4 8.7
2018-Sep-16 16:01N 51°07' E 001°20'0 0.0
2018-Sep-16 16:00N 51°07' E 001°20'0 0.2
2018-Sep-16 15:29N 51°07' E 001°20'715.8
2018-Sep-16 15:03N 51°06' E 001°31'119.3
2018-Sep-16 15:01N 51°06' E 001°32'1019.0
2018-Sep-16 14:30N 50°59' E 001°43'5 5.0
2018-Sep-16 13:29N 50°58' E 001°51'1 1.8
2018-Sep-16 13:03N 50°58' E 001°50'118.6
2018-Sep-16 13:00N 50°58' E 001°48'918.0
2018-Sep-16 12:31N 51°01' E 001°35'818.7
2018-Sep-16 12:04N 51°06' E 001°24'118.3
2018-Sep-16 12:00N 51°06' E 001°23'2 2.7
2018-Sep-16 11:16N 51°07' E 001°20'0 1.3
2018-Sep-16 11:03N 51°07' E 001°20'0 2.8
2018-Sep-16 11:00N 51°07' E 001°20'918.1
2018-Sep-16 10:31N 51°03' E 001°33'919.8
2018-Sep-16 10:03N 50°58' E 001°45'119.4
2018-Sep-16 10:00N 50°58' E 001°47'3 5.6
2018-Sep-16 09:30N 50°58' E 001°51'0 0.0
2018-Sep-16 09:00N 50°58' E 001°51'713.5
2018-Sep-16 08:30N 50°59' E 001°41'818.7
2018-Sep-16 08:04N 51°04' E 001°30'119.1
2018-Sep-16 08:00N 51°04' E 001°28'612.3
2018-Sep-16 07:30N 51°07' E 001°20'0 0.0
2018-Sep-16 07:03N 51°07' E 001°20'0 0.0
2018-Sep-16 06:59N 51°07' E 001°20'0 0.0
2018-Sep-16 06:30N 51°07' E 001°20'2 3.3
2018-Sep-16 06:03N 51°07' E 001°22'118.0
2018-Sep-16 06:01N 51°07' E 001°24'918.8
2018-Sep-16 05:30N 51°02' E 001°37'817.7
2018-Sep-16 05:03N 50°58' E 001°48'117.5
2018-Sep-16 05:00N 50°58' E 001°49'2 3.4
2018-Sep-16 04:30N 50°58' E 001°52'0 0.0
2018-Sep-16 04:03N 50°58' E 001°52'0 0.0
2018-Sep-16 04:00N 50°58' E 001°52'0 0.0
2018-Sep-16 03:30N 50°58' E 001°52'0 0.0
2018-Sep-16 03:03N 50°58' E 001°52'0 0.0
2018-Sep-16 03:00N 50°58' E 001°52'0 0.0
2018-Sep-16 02:30N 50°58' E 001°52'0 0.0
2018-Sep-16 02:00N 50°58' E 001°52'0 0.0
2018-Sep-16 01:30N 50°58' E 001°52'0 0.0
2018-Sep-16 01:01N 50°58' E 001°52'0 0.0
2018-Sep-16 01:00N 50°58' E 001°52'0 0.1
2018-Sep-16 00:30N 50°58' E 001°52'0 0.0
2018-Sep-16 00:03N 50°58' E 001°52'0 0.0
2018-Sep-16 00:00N 50°58' E 001°52'0 0.0
2018-Sep-15 23:30N 50°58' E 001°52'0 0.0
2018-Sep-15 23:03N 50°58' E 001°52'0 0.0
2018-Sep-15 23:00N 50°58' E 001°52'0 0.0
2018-Sep-15 22:30N 50°58' E 001°52'0 0.0
2018-Sep-15 22:03N 50°58' E 001°52'0 0.0
2018-Sep-15 22:00N 50°58' E 001°52'0 0.0
2018-Sep-15 21:30N 50°58' E 001°52'0 0.0
2018-Sep-15 21:03N 50°58' E 001°52'0 0.0
2018-Sep-15 21:00N 50°58' E 001°52'0 0.0
2018-Sep-15 20:30N 50°58' E 001°52'0 0.0
2018-Sep-15 20:03N 50°58' E 001°52'0 0.0
2018-Sep-15 20:00N 50°58' E 001°52'0 0.0
2018-Sep-15 19:30N 50°58' E 001°52'0 0.0
2018-Sep-15 19:03N 50°58' E 001°52'0 0.0
2018-Sep-15 19:00N 50°58' E 001°52'0 0.5
2018-Sep-15 18:30N 50°58' E 001°51'0 0.5
2018-Sep-15 17:54N 50°58' E 001°52'2 4.2
2018-Sep-15 17:30N 50°58' E 001°49'919.0
2018-Sep-15 17:03N 50°59' E 001°36'119.5
2018-Sep-15 17:00N 50°60' E 001°34'918.7
2018-Sep-15 16:30N 51°06' E 001°23'2 5.2
2018-Sep-15 16:03N 51°07' E 001°20'0 0.0
2018-Sep-15 15:59N 51°07' E 001°20'0 0.2
2018-Sep-15 15:30N 51°07' E 001°20'714.0
2018-Sep-15 15:01N 51°04' E 001°30'918.6
2018-Sep-15 14:30N 50°59' E 001°42'6 6.7
2018-Sep-15 13:41N 50°58' E 001°51'0 0.0
2018-Sep-15 13:23N 50°58' E 001°51'0 1.1
2018-Sep-15 13:03N 50°58' E 001°51'111.1
2018-Sep-15 13:01N 50°58' E 001°50'918.6
2018-Sep-15 12:30N 51°00' E 001°35'919.3
2018-Sep-15 12:03N 51°06' E 001°24'118.5
2018-Sep-15 12:00N 51°06' E 001°23'2 4.2
2018-Sep-15 11:27N 51°07' E 001°20'0 0.0
2018-Sep-15 11:03N 51°07' E 001°20'0 0.3
2018-Sep-15 10:59N 51°07' E 001°20'714.4
2018-Sep-15 10:31N 51°05' E 001°31'919.3
2018-Sep-15 10:04N 50°60' E 001°41'119.8
2018-Sep-15 10:00N 50°59' E 001°42'5 9.5
2018-Sep-15 09:26N 50°58' E 001°51'0 0.0
2018-Sep-15 09:03N 50°58' E 001°51'0 0.0
2018-Sep-15 08:51N 50°58' E 001°51'310.1
2018-Sep-15 08:30N 50°58' E 001°46'817.0
2018-Sep-15 08:03N 51°01' E 001°34'118.5
2018-Sep-15 08:00N 51°01' E 001°33'1018.3
2018-Sep-15 07:29N 51°07' E 001°21'1 1.4
2018-Sep-15 07:03N 51°07' E 001°20'0 0.0
2018-Sep-15 07:00N 51°07' E 001°20'0 0.0
2018-Sep-15 06:30N 51°07' E 001°20'511.5
2018-Sep-15 06:04N 51°07' E 001°28'116.4
2018-Sep-15 06:01N 51°06' E 001°29'815.7
2018-Sep-15 05:30N 51°01' E 001°39'714.6
2018-Sep-15 05:03N 50°58' E 001°48'115.0
2018-Sep-15 05:01N 50°58' E 001°49'1 1.0
2018-Sep-15 04:00N 50°58' E 001°51'814.4
2018-Sep-15 03:27N 50°59' E 001°38'616.4
2018-Sep-15 03:03N 51°03' E 001°31'116.9
2018-Sep-15 03:00N 51°04' E 001°30'611.8
2018-Sep-15 02:30N 51°07' E 001°22'1 3.1
2018-Sep-15 02:02N 51°07' E 001°20'0 0.0
2018-Sep-15 02:00N 51°07' E 001°20'0 0.0
2018-Sep-15 01:31N 51°07' E 001°20'1 2.9
2018-Sep-15 01:03N 51°07' E 001°22'114.3
2018-Sep-15 01:00N 51°07' E 001°23'816.0
2018-Sep-15 00:30N 51°03' E 001°34'715.5
2018-Sep-15 00:03N 50°59' E 001°43'116.4
2018-Sep-15 00:01N 50°58' E 001°44'5 8.0
2018-Sep-14 23:27N 50°58' E 001°51'0 0.0
2018-Sep-14 23:02N 50°58' E 001°51'0 0.0
2018-Sep-14 22:47N 50°58' E 001°51'1 1.5
2018-Sep-14 22:27N 50°58' E 001°50'716.4
2018-Sep-14 22:03N 50°59' E 001°40'117.8
2018-Sep-14 22:00N 50°59' E 001°39'  
Track history (hours):
 
Tides and Currents Weather Stations Pressure Air Temp Water Temp Dewpoint Dewpoint Depression Visibility Wind Speed Wind Dir Waves Ship Positions

Pride Of Canterbury

Operator: P & O Ferries

Last reported at 2018-Sep-24 21:31 UTC. Time now 2018-Sep-24 21:37 UTC.
Position N 51°03' E 001°28'.

Length 180 m; draft 5.7 m.

Type: Passenger vessel. MMSI: 232001060.

Date/timePositionNaut miles runAvg speedWind from/ knotsBaromVisibWave heightAir tempDewpointWater temp
2018-Sep-24 21:31N 51°03' E 001°28'714.2
2018-Sep-24 21:03N 51°07' E 001°20'0 0.0
2018-Sep-24 21:00N 51°07' E 001°20'0 0.0
2018-Sep-24 20:30N 51°07' E 001°20'0 0.1
2018-Sep-24 20:03N 51°07' E 001°20'0 1.6
2018-Sep-24 19:59N 51°07' E 001°20'715.1
2018-Sep-24 19:31N 51°04' E 001°30'817.0
2018-Sep-24 19:03N 51°00' E 001°41'117.2
2018-Sep-24 19:00N 50°60' E 001°42'6 9.6
2018-Sep-24 18:22N 50°58' E 001°51'0 0.0
2018-Sep-24 17:58N 50°58' E 001°51'2 3.5
2018-Sep-24 17:31N 50°58' E 001°48'715.7
2018-Sep-24 17:03N 51°00' E 001°38'117.7
2018-Sep-24 17:00N 51°01' E 001°36'918.3
2018-Sep-24 16:30N 51°06' E 001°24'3 6.9
2018-Sep-24 16:03N 51°07' E 001°20'0 0.0
2018-Sep-24 16:00N 51°07' E 001°20'0 0.2
2018-Sep-24 15:28N 51°07' E 001°20'615.2
2018-Sep-24 15:03N 51°06' E 001°30'118.5
2018-Sep-24 15:00N 51°05' E 001°31'918.3
2018-Sep-24 14:30N 50°60' E 001°43'6 6.5
2018-Sep-24 13:40N 50°58' E 001°51'0 0.0
2018-Sep-24 13:11N 50°58' E 001°51'0 3.0
2018-Sep-24 13:02N 50°58' E 001°50'011.2
2018-Sep-24 13:00N 50°58' E 001°50'1019.2
2018-Sep-24 12:30N 51°01' E 001°35'919.9
2018-Sep-24 12:03N 51°06' E 001°24'120.0
2018-Sep-24 12:00N 51°07' E 001°22'2 2.1
2018-Sep-24 11:14N 51°07' E 001°20'0 2.1
2018-Sep-24 11:03N 51°07' E 001°20'0 1.1
2018-Sep-24 11:01N 51°07' E 001°20'816.2
2018-Sep-24 10:31N 51°04' E 001°32'818.4
2018-Sep-24 10:03N 50°59' E 001°43'118.0
2018-Sep-24 10:01N 50°59' E 001°44'5 7.1
2018-Sep-24 09:22N 50°58' E 001°51'0 0.0
2018-Sep-24 09:00N 50°58' E 001°51'4 7.7
2018-Sep-24 08:30N 50°58' E 001°45'817.1
2018-Sep-24 08:03N 51°00' E 001°33'119.2
2018-Sep-24 08:00N 51°01' E 001°32'918.6
2018-Sep-24 07:30N 51°07' E 001°21'1 0.6
2018-Sep-24 06:19N 51°07' E 001°20'1 3.5
2018-Sep-24 06:04N 51°07' E 001°22'118.0
2018-Sep-24 06:01N 51°07' E 001°23'918.1
2018-Sep-24 05:30N 51°03' E 001°36'817.6
2018-Sep-24 05:04N 50°58' E 001°46'119.3
2018-Sep-24 05:01N 50°58' E 001°47'2 4.7
2018-Sep-24 04:30N 50°58' E 001°51'0 0.0
2018-Sep-24 04:03N 50°58' E 001°51'0 0.0
2018-Sep-24 04:00N 50°58' E 001°51'1 2.9
2018-Sep-24 03:30N 50°58' E 001°49'715.0
2018-Sep-24 03:03N 51°00' E 001°39'116.5
2018-Sep-24 03:00N 51°01' E 001°38'816.6
2018-Sep-24 02:30N 51°05' E 001°26'4 9.8
2018-Sep-24 02:03N 51°07' E 001°20'0 0.0
2018-Sep-24 02:00N 51°07' E 001°20'0 0.0
2018-Sep-24 01:30N 51°07' E 001°20'1 2.7
2018-Sep-24 01:03N 51°07' E 001°22'116.4
2018-Sep-24 01:00N 51°07' E 001°23'815.2
2018-Sep-24 00:30N 51°03' E 001°34'714.8
2018-Sep-24 00:03N 50°59' E 001°42'114.8
2018-Sep-24 00:00N 50°59' E 001°43'5 8.5
2018-Sep-23 23:26N 50°58' E 001°51'0 0.0
2018-Sep-23 22:59N 50°58' E 001°51'0 0.1
2018-Sep-23 22:27N 50°58' E 001°51'614.4
2018-Sep-23 22:04N 50°59' E 001°42'219.6
2018-Sep-23 21:57N 51°01' E 001°40'919.6
2018-Sep-23 21:31N 51°04' E 001°27'512.1
2018-Sep-23 21:03N 51°07' E 001°20'0 0.0
2018-Sep-23 21:00N 51°07' E 001°20'0 0.3
2018-Sep-23 20:30N 51°07' E 001°20'716.1
2018-Sep-23 20:04N 51°04' E 001°31'117.9
2018-Sep-23 20:00N 51°04' E 001°32'918.3
2018-Sep-23 19:30N 50°59' E 001°44'5 8.8
2018-Sep-23 18:59N 50°58' E 001°51'0 0.1
2018-Sep-23 18:27N 50°58' E 001°51'512.7
2018-Sep-23 18:04N 50°58' E 001°43'117.4
2018-Sep-23 18:01N 50°58' E 001°42'918.6
2018-Sep-23 17:31N 51°03' E 001°29'715.7
2018-Sep-23 17:03N 51°07' E 001°20'0 0.0
2018-Sep-23 17:00N 51°07' E 001°20'0 0.2
2018-Sep-23 16:30N 51°07' E 001°20'512.6
2018-Sep-23 16:03N 51°06' E 001°29'118.7
2018-Sep-23 16:00N 51°06' E 001°30'917.5
2018-Sep-23 15:30N 50°60' E 001°40'715.8
2018-Sep-23 15:03N 50°58' E 001°51'0 1.7
2018-Sep-23 14:59N 50°58' E 001°51'0 0.0
2018-Sep-23 14:00N 50°58' E 001°51'611.4
2018-Sep-23 13:31N 50°58' E 001°42'1 1.6
2018-Sep-23 13:03N 50°59' E 001°41'0 6.0
2018-Sep-23 13:00N 50°59' E 001°41'611.7
2018-Sep-23 12:31N 51°02' E 001°33'919.1
2018-Sep-23 12:02N 51°07' E 001°21'113.0
2018-Sep-23 12:00N 51°07' E 001°21'0 0.6
2018-Sep-23 11:29N 51°07' E 001°20'0 0.3
2018-Sep-23 11:02N 51°07' E 001°20'0 2.1
2018-Sep-23 11:00N 51°07' E 001°20'714.8
2018-Sep-23 10:30N 51°05' E 001°31'817.8
2018-Sep-23 10:03N 51°00' E 001°41'118.0
2018-Sep-23 10:00N 50°60' E 001°42'611.3
2018-Sep-23 09:30N 50°58' E 001°51'0 0.1
2018-Sep-23 08:35N 50°58' E 001°51'1 8.8
2018-Sep-23 08:30N 50°58' E 001°50'818.6
2018-Sep-23 08:03N 50°59' E 001°37'119.0
2018-Sep-23 08:00N 50°60' E 001°35'1019.1
2018-Sep-23 07:30N 51°06' E 001°24'3 5.8
2018-Sep-23 07:03N 51°07' E 001°20'0 0.0
2018-Sep-23 07:00N 51°07' E 001°20'0 0.0
2018-Sep-23 06:31N 51°07' E 001°20'0 0.0
2018-Sep-23 06:03N 51°07' E 001°20'0 0.0
2018-Sep-23 06:00N 51°07' E 001°20'4 8.6
2018-Sep-23 05:30N 51°06' E 001°26'818.6
2018-Sep-23 05:04N 50°60' E 001°36'120.7
2018-Sep-23 05:00N 50°60' E 001°37'917.5
2018-Sep-23 04:31N 50°58' E 001°51'0 0.1
2018-Sep-23 03:54N 50°58' E 001°51'1 2.3
2018-Sep-23 03:31N 50°58' E 001°50'716.2
2018-Sep-23 03:03N 50°59' E 001°38'117.8
2018-Sep-23 03:01N 50°59' E 001°37'918.0
2018-Sep-23 02:30N 51°05' E 001°26'4 3.4
2018-Sep-23 01:15N 51°07' E 001°20'0 1.4
2018-Sep-23 01:03N 51°07' E 001°20'0 7.4
2018-Sep-23 01:01N 51°07' E 001°20'816.3
2018-Sep-23 00:30N 51°04' E 001°32'818.1
2018-Sep-23 00:04N 50°59' E 001°42'117.8
2018-Sep-23 00:01N 50°59' E 001°43'5 7.9
2018-Sep-22 23:23N 50°58' E 001°51'0 0.0
2018-Sep-22 22:59N 50°58' E 001°51'0 0.0
2018-Sep-22 22:31N 50°58' E 001°51'512.1
2018-Sep-22 22:03N 50°58' E 001°42'120.4
2018-Sep-22 21:59N 50°58' E 001°40'918.7
2018-Sep-22 21:31N 51°03' E 001°29'715.2
2018-Sep-22 21:03N 51°07' E 001°20'0 0.0
2018-Sep-22 21:00N 51°07' E 001°20'0 0.0
2018-Sep-22 20:30N 51°07' E 001°20'2 5.0
2018-Sep-22 20:04N 51°07' E 001°24'119.4
2018-Sep-22 20:01N 51°06' E 001°25'1019.5
2018-Sep-22 19:30N 51°01' E 001°38'818.1
2018-Sep-22 19:04N 50°58' E 001°50'0 9.9
2018-Sep-22 19:01N 50°58' E 001°51'1 0.8
2018-Sep-22 18:15N 50°58' E 001°52'0 0.1
2018-Sep-22 18:03N 50°58' E 001°52'0 2.3
2018-Sep-22 18:00N 50°58' E 001°51'510.4
2018-Sep-22 17:30N 50°58' E 001°43'817.7
2018-Sep-22 17:04N 51°02' E 001°32'118.5
2018-Sep-22 17:01N 51°02' E 001°31'916.6
2018-Sep-22 16:29N 51°07' E 001°20'0 0.0
2018-Sep-22 16:03N 51°07' E 001°20'0 0.0
2018-Sep-22 15:49N 51°07' E 001°20'2 7.4
2018-Sep-22 15:30N 51°07' E 001°24'919.2
2018-Sep-22 15:03N 51°02' E 001°35'119.2
2018-Sep-22 15:00N 51°02' E 001°37'918.0
2018-Sep-22 14:31N 50°58' E 001°50'1 1.0
2018-Sep-22 13:19N 50°58' E 001°52'2 8.6
2018-Sep-22 13:03N 50°58' E 001°48'119.3
2018-Sep-22 13:00N 50°58' E 001°47'1019.0
2018-Sep-22 12:30N 51°02' E 001°33'919.4
2018-Sep-22 12:03N 51°07' E 001°22'115.5
2018-Sep-22 12:00N 51°07' E 001°21'0 0.6
2018-Sep-22 11:30N 51°07' E 001°20'0 0.7
2018-Sep-22 11:02N 51°07' E 001°20'0 1.2
2018-Sep-22 11:00N 51°07' E 001°20'816.2
2018-Sep-22 10:30N 51°04' E 001°32'818.2
2018-Sep-22 10:03N 50°59' E 001°43'117.6
2018-Sep-22 10:00N 50°59' E 001°44'4 4.8
2018-Sep-22 09:07N 50°58' E 001°51'0 0.0
2018-Sep-22 09:02N 50°58' E 001°51'0 0.4
2018-Sep-22 08:40N 50°58' E 001°51'214.1
2018-Sep-22 08:30N 50°58' E 001°47'919.1
2018-Sep-22 08:04N 50°59' E 001°34'118.1
2018-Sep-22 08:00N 51°00' E 001°33'816.3
2018-Sep-22 07:31N 51°06' E 001°24'3 5.9
2018-Sep-22 07:02N 51°07' E 001°20'0 0.0
2018-Sep-22 07:00N 51°07' E 001°20'0 0.0
2018-Sep-22 06:30N 51°07' E 001°20'0 0.2
2018-Sep-22 06:03N 51°07' E 001°20'0 0.9
2018-Sep-22 06:00N 51°07' E 001°20'816.0
2018-Sep-22 05:31N 51°03' E 001°31'919.1
2018-Sep-22 05:03N 50°59' E 001°43'119.3
2018-Sep-22 05:00N 50°58' E 001°44'4 8.3
2018-Sep-22 04:29N 50°58' E 001°51'0 0.0
2018-Sep-22 03:59N 50°58' E 001°51'1 1.9
2018-Sep-22 03:30N 50°58' E 001°50'716.2
2018-Sep-22 03:03N 50°59' E 001°38'117.9
2018-Sep-22 03:00N 50°59' E 001°37'917.9
2018-Sep-22 02:30N 51°04' E 001°25'4 8.1
2018-Sep-22 01:57N 51°07' E 001°20'0 0.0
2018-Sep-22 01:30N 51°07' E 001°20'0 0.0
2018-Sep-22 01:03N 51°07' E 001°20'0 0.0
2018-Sep-22 01:00N 51°07' E 001°20'0 0.0
2018-Sep-22 00:30N 51°07' E 001°20'0 0.0
2018-Sep-22 00:03N 51°07' E 001°20'0 0.0
2018-Sep-22 00:00N 51°07' E 001°20'0 0.0
2018-Sep-21 23:30N 51°07' E 001°20'0 0.2
2018-Sep-21 23:02N 51°07' E 001°20'0 1.6
2018-Sep-21 23:01N 51°07' E 001°20'612.6
2018-Sep-21 22:31N 51°05' E 001°30'714.6
2018-Sep-21 22:04N 51°01' E 001°38'113.5
2018-Sep-21 22:01N 51°01' E 001°39'713.1
2018-Sep-21 21:30N 50°58' E 001°48'2 2.9
2018-Sep-21 20:56N 50°58' E 001°51'0 0.0
2018-Sep-21 20:25N 50°58' E 001°51'0 0.0
2018-Sep-21 19:53N 50°58' E 001°51'0 0.0
2018-Sep-21 19:22N 50°58' E 001°51'412.4
2018-Sep-21 19:03N 50°58' E 001°45'119.0
2018-Sep-21 19:00N 50°58' E 001°43'918.7
2018-Sep-21 18:30N 51°03' E 001°31'8 6.0
2018-Sep-21 17:10N 51°07' E 001°20'0 1.3
2018-Sep-21 17:02N 51°07' E 001°20'0 1.4
2018-Sep-21 17:00N 51°07' E 001°20'713.5
2018-Sep-21 16:30N 51°05' E 001°30'817.0
2018-Sep-21 16:03N 51°00' E 001°40'117.3
2018-Sep-21 16:00N 50°60' E 001°41'713.1
2018-Sep-21 15:30N 50°58' E 001°51'0 0.0
2018-Sep-21 15:03N 50°58' E 001°51'0 0.0
2018-Sep-21 14:58N 50°58' E 001°51'7 8.0
2018-Sep-21 14:03N 50°59' E 001°40'1018.9
2018-Sep-21 13:30N 51°05' E 001°26'5 4.2
2018-Sep-21 12:24N 51°07' E 001°20'1 3.9
2018-Sep-21 12:03N 51°07' E 001°22'116.7
2018-Sep-21 12:00N 51°07' E 001°24'917.3
2018-Sep-21 11:30N 51°02' E 001°35'817.0
2018-Sep-21 11:04N 50°58' E 001°45'115.9
2018-Sep-21 11:00N 50°58' E 001°47'3 4.2
2018-Sep-21 10:15N 50°58' E 001°52'0 0.0
2018-Sep-21 10:00N 50°58' E 001°52'2 4.3
2018-Sep-21 09:30N 50°58' E 001°48'919.0
2018-Sep-21 09:03N 51°01' E 001°35'218.8
2018-Sep-21 08:57N 51°02' E 001°33'818.9
2018-Sep-21 08:30N 51°07' E 001°22'1 1.4
2018-Sep-21 07:27N 51°07' E 001°20'3 8.4
2018-Sep-21 07:03N 51°07' E 001°25'117.2
2018-Sep-21 07:00N 51°07' E 001°27'815.5
2018-Sep-21 06:31N 51°03' E 001°37'715.7
2018-Sep-21 06:03N 50°58' E 001°46'116.7
2018-Sep-21 06:00N 50°58' E 001°47'3 5.7
2018-Sep-21 05:30N 50°58' E 001°52'0 0.0
2018-Sep-21 04:47N 50°58' E 001°52'2 8.2
2018-Sep-21 04:30N 50°58' E 001°48'817.0
2018-Sep-21 04:03N 50°60' E 001°36'117.8
2018-Sep-21 04:00N 51°00' E 001°35'918.0
2018-Sep-21 03:30N 51°05' E 001°23'3 2.2
2018-Sep-21 02:12N 51°07' E 001°20'0 1.1
2018-Sep-21 02:02N 51°07' E 001°20'0 1.4
2018-Sep-21 02:00N 51°07' E 001°20'3 5.0
2018-Sep-21 01:29N 51°07' E 001°24'3 7.1
2018-Sep-21 01:04N 51°06' E 001°28'114.4
2018-Sep-21 01:00N 51°05' E 001°29'714.9
2018-Sep-21 00:30N 51°01' E 001°39'614.0
2018-Sep-21 00:03N 50°58' E 001°48'115.1
2018-Sep-21 00:01N 50°58' E 001°49'1 2.3
2018-Sep-20 23:30N 50°58' E 001°51'0 0.0
2018-Sep-20 23:03N 50°58' E 001°51'0 0.1
2018-Sep-20 22:58N 50°58' E 001°51'0 0.1
2018-Sep-20 22:30N 50°58' E 001°51'716.0
2018-Sep-20 22:03N 50°58' E 001°40'118.7
2018-Sep-20 22:00N 50°59' E 001°38'918.8
2018-Sep-20 21:30N 51°03' E 001°26'5 5.7
2018-Sep-20 20:35N 51°07' E 001°20'0 0.0
2018-Sep-20 20:23N 51°07' E 001°20'3 9.9
2018-Sep-20 20:04N 51°06' E 001°25'118.6
2018-Sep-20 20:00N 51°06' E 001°26'1019.1
2018-Sep-20 19:30N 51°01' E 001°39'716.5
2018-Sep-20 19:03N 50°58' E 001°50'0 5.3
2018-Sep-20 19:01N 50°58' E 001°51'0 0.4
2018-Sep-20 18:29N 50°58' E 001°51'0 0.0
2018-Sep-20 17:56N 50°58' E 001°51'613.0
2018-Sep-20 17:30N 50°58' E 001°42'818.4
2018-Sep-20 17:04N 51°02' E 001°30'118.8
2018-Sep-20 17:01N 51°02' E 001°29'8 7.2
2018-Sep-20 15:57N 51°07' E 001°20'2 4.7
2018-Sep-20 15:30N 51°07' E 001°23'818.7
2018-Sep-20 15:03N 51°03' E 001°35'119.0
2018-Sep-20 15:00N 51°02' E 001°36'917.9
2018-Sep-20 14:30N 50°58' E 001°49'1 2.1
2018-Sep-20 14:00N 50°58' E 001°51'0 0.4
2018-Sep-20 13:18N 50°58' E 001°51'415.0
2018-Sep-20 13:03N 50°58' E 001°45'118.5
2018-Sep-20 13:00N 50°58' E 001°43'918.9
2018-Sep-20 12:30N 51°02' E 001°29'817.6
2018-Sep-20 12:03N 51°07' E 001°20'0 5.7
2018-Sep-20 12:00N 51°07' E 001°20'0 0.0
2018-Sep-20 11:24N 51°07' E 001°20'0 0.9
2018-Sep-20 11:03N 51°07' E 001°20'112.7
2018-Sep-20 11:00N 51°07' E 001°22'917.8
2018-Sep-20 10:30N 51°04' E 001°34'818.6
2018-Sep-20 10:03N 50°58' E 001°45'116.5
2018-Sep-20 10:00N 50°58' E 001°46'3 5.0
2018-Sep-20 09:22N 50°58' E 001°51'0 0.0
2018-Sep-20 08:55N 50°58' E 001°51'1 2.4
2018-Sep-20 08:31N 50°58' E 001°50'918.0
2018-Sep-20 08:02N 51°01' E 001°37'117.9
2018-Sep-20 08:00N 51°01' E 001°36'918.7
2018-Sep-20 07:30N 51°06' E 001°23'2 2.0
2018-Sep-20 06:20N 51°07' E 001°20'1 2.9
2018-Sep-20 06:03N 51°07' E 001°21'115.3
2018-Sep-20 06:01N 51°07' E 001°22'918.1
2018-Sep-20 05:31N 51°03' E 001°35'818.5
2018-Sep-20 05:03N 50°58' E 001°46'117.9
2018-Sep-20 05:01N 50°58' E 001°47'2 3.9
2018-Sep-20 04:24N 50°58' E 001°51'0 0.0
2018-Sep-20 04:00N 50°58' E 001°51'2 3.3
2018-Sep-20 03:30N 50°58' E 001°48'817.0
2018-Sep-20 03:03N 51°00' E 001°37'118.2
2018-Sep-20 03:00N 51°01' E 001°36'918.2
2018-Sep-20 02:30N 51°06' E 001°24'3 5.5
2018-Sep-20 02:00N 51°07' E 001°20'0 0.0
2018-Sep-20 01:28N 51°07' E 001°20'3 7.6
2018-Sep-20 01:04N 51°06' E 001°25'118.5
2018-Sep-20 01:01N 51°06' E 001°26'918.9
2018-Sep-20 00:30N 51°01' E 001°39'817.1
2018-Sep-20 00:04N 50°58' E 001°50'0 6.8
2018-Sep-20 00:01N 50°58' E 001°51'0 0.7
2018-Sep-19 23:30N 50°58' E 001°51'0 0.0
2018-Sep-19 23:02N 50°58' E 001°51'0 0.0
2018-Sep-19 23:01N 50°58' E 001°51'3 6.6
2018-Sep-19 22:30N 50°58' E 001°46'919.1
2018-Sep-19 22:03N 51°02' E 001°34'119.3
2018-Sep-19 22:00N 51°02' E 001°32'917.6
2018-Sep-19 21:29N 51°07' E 001°20'0 0.0
2018-Sep-19 21:03N 51°07' E 001°20'0 0.0
2018-Sep-19 21:00N 51°07' E 001°20'1 1.4
2018-Sep-19 20:31N 51°07' E 001°21'817.2
2018-Sep-19 20:03N 51°04' E 001°33'118.1
2018-Sep-19 20:00N 51°04' E 001°34'917.7
2018-Sep-19 19:30N 50°58' E 001°45'4 8.2
2018-Sep-19 19:01N 50°58' E 001°51'0 0.0
2018-Sep-19 19:00N 50°58' E 001°51'0 0.0
2018-Sep-19 18:27N 50°58' E 001°51'3 7.8
2018-Sep-19 18:04N 50°58' E 001°46'120.3
2018-Sep-19 18:01N 50°58' E 001°45'816.9
2018-Sep-19 17:30N 51°02' E 001°33'818.5
2018-Sep-19 17:04N 51°07' E 001°22'115.7
2018-Sep-19 17:00N 51°07' E 001°21'0 0.9
2018-Sep-19 16:30N 51°07' E 001°20'0 0.0
2018-Sep-19 16:02N 51°07' E 001°20'0 0.0
2018-Sep-19 16:00N 51°07' E 001°20'3 6.8
2018-Sep-19 15:30N 51°07' E 001°25'818.6
2018-Sep-19 15:03N 51°02' E 001°37'119.1
2018-Sep-19 15:00N 51°02' E 001°38'817.0
2018-Sep-19 14:30N 50°58' E 001°50'0 0.4
2018-Sep-19 13:30N 50°58' E 001°51'716.6
2018-Sep-19 13:03N 50°59' E 001°39'218.5
2018-Sep-19 12:56N 51°01' E 001°36'818.6
2018-Sep-19 12:30N 51°05' E 001°26'4 9.4
2018-Sep-19 12:03N 51°07' E 001°20'0 0.0
2018-Sep-19 12:01N 51°07' E 001°20'0 0.0
2018-Sep-19 11:30N 51°07' E 001°20'2 5.6
2018-Sep-19 11:04N 51°07' E 001°24'117.9
2018-Sep-19 11:01N 51°06' E 001°25'918.6
2018-Sep-19 10:30N 51°01' E 001°38'817.4
2018-Sep-19 10:03N 50°58' E 001°49'114.9
2018-Sep-19 10:00N 50°58' E 001°50'0 1.0
2018-Sep-19 09:30N 50°58' E 001°51'0 0.0
2018-Sep-19 09:00N 50°58' E 001°51'2 4.7
2018-Sep-19 08:29N 50°58' E 001°47'1018.3
2018-Sep-19 07:56N 51°02' E 001°32'818.5
2018-Sep-19 07:30N 51°07' E 001°22'2 3.4
2018-Sep-19 07:03N 51°07' E 001°20'0 0.0
2018-Sep-19 07:00N 51°07' E 001°20'0 0.0
2018-Sep-19 06:30N 51°07' E 001°20'1 1.8
2018-Sep-19 06:03N 51°07' E 001°21'115.8
2018-Sep-19 06:00N 51°07' E 001°22'918.4
2018-Sep-19 05:30N 51°03' E 001°35'818.1
2018-Sep-19 05:03N 50°58' E 001°46'117.2
2018-Sep-19 05:00N 50°58' E 001°47'2 4.3
2018-Sep-19 04:29N 50°58' E 001°51'0 0.0
2018-Sep-19 04:01N 50°58' E 001°51'0 0.0
2018-Sep-19 03:49N 50°58' E 001°51'0 0.0
2018-Sep-19 03:31N 50°58' E 001°51'0 0.0
2018-Sep-19 00:34N 50°58' E 001°51'0 0.2
2018-Sep-19 00:21N 50°58' E 001°51'311.9
2018-Sep-19 00:03N 50°58' E 001°45'117.5
2018-Sep-19 00:00N 50°58' E 001°44'918.4
2018-Sep-18 23:30N 51°02' E 001°31'818.5
2018-Sep-18 23:03N 51°07' E 001°20'0 0.2
2018-Sep-18 22:12N 51°07' E 001°20'1 6.2
2018-Sep-18 22:03N 51°07' E 001°22'118.2
2018-Sep-18 22:01N 51°07' E 001°23'918.9
2018-Sep-18 21:30N 51°03' E 001°36'818.2
2018-Sep-18 21:03N 50°58' E 001°47'118.6
2018-Sep-18 21:00N 50°58' E 001°49'1 2.6
2018-Sep-18 20:26N 50°58' E 001°51'0 0.1
2018-Sep-18 20:02N 50°58' E 001°51'0 4.7
2018-Sep-18 19:59N 50°58' E 001°51'818.0
2018-Sep-18 19:31N 50°59' E 001°37'818.0
2018-Sep-18 19:03N 51°04' E 001°27'118.1
2018-Sep-18 19:00N 51°05' E 001°27'5 3.2
2018-Sep-18 17:30N 51°07' E 001°20'4 8.7
2018-Sep-18 17:03N 51°07' E 001°26'0 7.2
2018-Sep-18 17:00N 51°07' E 001°27'816.0
2018-Sep-18 16:30N 51°02' E 001°37'716.6
2018-Sep-18 16:04N 50°58' E 001°47'116.2
2018-Sep-18 16:00N 50°58' E 001°48'2 3.2
2018-Sep-18 15:28N 50°58' E 001°51'0 0.0
2018-Sep-18 15:03N 50°58' E 001°51'0 0.0
2018-Sep-18 14:56N 50°58' E 001°51'1213.8
2018-Sep-18 14:03N 51°02' E 001°33'118.8
2018-Sep-18 14:00N 51°03' E 001°32'916.7
2018-Sep-18 13:29N 51°07' E 001°20'0 0.0
2018-Sep-18 12:42N 51°07' E 001°20'0 0.6
2018-Sep-18 12:25N 51°07' E 001°20'2 6.8
2018-Sep-18 12:04N 51°07' E 001°24'0 3.8
2018-Sep-18 12:00N 51°07' E 001°24'1 2.2
2018-Sep-18 11:31N 51°08' E 001°26'1 2.0
2018-Sep-18 11:04N 51°09' E 001°26'0 1.7
2018-Sep-18 11:01N 51°09' E 001°27'510.2
2018-Sep-18 10:30N 51°04' E 001°31'818.1
2018-Sep-18 10:04N 50°60' E 001°41'118.0
2018-Sep-18 10:01N 50°59' E 001°43'5 9.9
2018-Sep-18 09:28N 50°58' E 001°51'0 0.0
2018-Sep-18 09:03N 50°58' E 001°51'0 0.0
2018-Sep-18 08:52N 50°58' E 001°51'3 8.1
2018-Sep-18 08:30N 50°58' E 001°46'919.1
2018-Sep-18 08:02N 51°01' E 001°33'118.6
2018-Sep-18 08:00N 51°01' E 001°32'918.7
2018-Sep-18 07:31N 51°07' E 001°21'1 1.2
2018-Sep-18 06:57N 51°07' E 001°20'0 0.0
2018-Sep-18 06:28N 51°07' E 001°20'2 4.7
2018-Sep-18 06:03N 51°07' E 001°23'0 7.5
2018-Sep-18 06:00N 51°07' E 001°24'917.3
2018-Sep-18 05:30N 51°03' E 001°36'817.2
2018-Sep-18 05:03N 50°58' E 001°46'115.4
2018-Sep-18 05:00N 50°58' E 001°47'3 5.2
2018-Sep-18 04:30N 50°58' E 001°51'0 0.0
2018-Sep-18 04:03N 50°58' E 001°51'0 0.0
2018-Sep-18 04:00N 50°58' E 001°51'2 5.0
2018-Sep-18 03:30N 50°58' E 001°47'818.4
2018-Sep-18 03:03N 51°01' E 001°35'118.3
2018-Sep-18 03:00N 51°01' E 001°33'918.0
2018-Sep-18 02:30N 51°07' E 001°22'2 3.3
2018-Sep-18 02:03N 51°07' E 001°20'0 0.0
2018-Sep-18 02:00N 51°07' E 001°20'0 0.0
2018-Sep-18 01:30N 51°07' E 001°20'2 4.4
2018-Sep-18 01:03N 51°07' E 001°23'118.9
2018-Sep-18 01:00N 51°07' E 001°25'918.4
2018-Sep-18 00:30N 51°02' E 001°37'817.7
2018-Sep-18 00:03N 50°58' E 001°48'117.0
2018-Sep-18 00:00N 50°58' E 001°49'1 2.3
2018-Sep-17 23:30N 50°58' E 001°51'0 0.0
2018-Sep-17 23:03N 50°58' E 001°51'0 0.0
2018-Sep-17 23:00N 50°58' E 001°51'0 1.0
2018-Sep-17 22:31N 50°58' E 001°51'715.1
2018-Sep-17 22:03N 50°59' E 001°40'117.4
2018-Sep-17 22:00N 50°59' E 001°39'918.0
2018-Sep-17 21:30N 51°04' E 001°27'511.9
2018-Sep-17 21:04N 51°07' E 001°20'0 0.0
2018-Sep-17 21:01N 51°07' E 001°20'0 0.0
2018-Sep-17 20:31N 51°07' E 001°20'0 0.1
2018-Sep-17 20:03N 51°07' E 001°20'0 1.3
2018-Sep-17 20:00N 51°07' E 001°20'714.8
2018-Sep-17 19:30N 51°04' E 001°31'817.3
2018-Sep-17 19:04N 50°60' E 001°41'117.1
2018-Sep-17 19:00N 50°59' E 001°42'611.3
2018-Sep-17 18:30N 50°58' E 001°51'0 0.0
2018-Sep-17 18:02N 50°58' E 001°51'0 0.0
2018-Sep-17 17:46N 50°58' E 001°51'310.6
2018-Sep-17 17:31N 50°58' E 001°47'919.1
2018-Sep-17 17:03N 51°02' E 001°34'119.4
2018-Sep-17 17:01N 51°02' E 001°33'1019.0
2018-Sep-17 16:30N 51°07' E 001°20'1 1.3
2018-Sep-17 16:02N 51°07' E 001°20'0 0.0
2018-Sep-17 16:00N 51°07' E 001°20'0 0.2
2018-Sep-17 15:29N 51°07' E 001°20'717.0
2018-Sep-17 15:03N 51°05' E 001°31'119.1
2018-Sep-17 15:00N 51°04' E 001°32'918.9
2018-Sep-17 14:30N 50°58' E 001°44'4 8.8
2018-Sep-17 14:00N 50°58' E 001°51'0 0.0
2018-Sep-17 13:30N 50°58' E 001°51'2 4.5
2018-Sep-17 13:03N 50°58' E 001°48'117.2
2018-Sep-17 13:00N 50°58' E 001°46'816.4
2018-Sep-17 12:31N 51°01' E 001°34'817.3
2018-Sep-17 12:03N 51°05' E 001°25'117.4
2018-Sep-17 12:00N 51°06' E 001°23'3 5.0
2018-Sep-17 11:30N 51°07' E 001°20'0 0.3
2018-Sep-17 11:04N 51°07' E 001°20'0 8.9
2018-Sep-17 11:01N 51°07' E 001°21'917.2
2018-Sep-17 10:30N 51°03' E 001°33'818.0
2018-Sep-17 10:04N 50°59' E 001°44'116.9
2018-Sep-17 10:00N 50°58' E 001°45'4 7.6
2018-Sep-17 09:30N 50°58' E 001°51'0 0.0
2018-Sep-17 09:03N 50°58' E 001°51'0 0.0
2018-Sep-17 09:00N 50°58' E 001°51'3 5.9
2018-Sep-17 08:30N 50°58' E 001°46'716.5
2018-Sep-17 08:03N 50°60' E 001°35'117.3
2018-Sep-17 08:00N 50°60' E 001°34'917.2
2018-Sep-17 07:30N 51°06' E 001°23'3 5.9
2018-Sep-17 07:03N 51°07' E 001°20'0 0.0
2018-Sep-17 07:00N 51°07' E 001°20'0 0.2
2018-Sep-17 06:28N 51°07' E 001°20'513.1
2018-Sep-17 06:03N 51°06' E 001°28'116.0
2018-Sep-17 06:00N 51°05' E 001°29'816.0
2018-Sep-17 05:30N 51°01' E 001°40'614.0
2018-Sep-17 05:04N 50°58' E 001°49'113.0
2018-Sep-17 05:00N 50°58' E 001°50'1 1.3
2018-Sep-17 04:30N 50°58' E 001°51'0 0.0
2018-Sep-17 04:03N 50°58' E 001°51'0 0.0
2018-Sep-17 04:00N 50°58' E 001°51'2 4.8
2018-Sep-17 03:31N 50°58' E 001°48'817.4
2018-Sep-17 03:02N 51°01' E 001°35'117.4
2018-Sep-17 03:00N 51°02' E 001°35'917.1
2018-Sep-17 02:31N 51°06' E 001°24'3 5.5
2018-Sep-17 02:03N 51°07' E 001°20'0 0.0
2018-Sep-17 02:00N 51°07' E 001°20'0 0.0
2018-Sep-17 01:30N 51°07' E 001°20'1 1.8
2018-Sep-17 01:04N 51°07' E 001°21'115.5
2018-Sep-17 01:01N 51°07' E 001°23'917.4
2018-Sep-17 00:31N 51°03' E 001°35'613.8
2018-Sep-17 00:03N 50°59' E 001°43'113.4
2018-Sep-17 00:00N 50°59' E 001°43'5 9.8
2018-Sep-16 23:30N 50°58' E 001°51'0 0.0
2018-Sep-16 23:03N 50°58' E 001°51'0 0.0
2018-Sep-16 23:00N 50°58' E 001°51'0 0.7
2018-Sep-16 22:30N 50°58' E 001°51'714.7
2018-Sep-16 22:03N 50°58' E 001°40'116.0
2018-Sep-16 22:00N 50°58' E 001°39'816.9
2018-Sep-16 21:30N 51°04' E 001°29'714.4
2018-Sep-16 21:03N 51°07' E 001°20'0 0.0
2018-Sep-16 21:00N 51°07' E 001°20'0 0.0
2018-Sep-16 20:29N 51°07' E 001°20'1 3.3
2018-Sep-16 20:03N 51°07' E 001°22'116.8
2018-Sep-16 20:01N 51°07' E 001°24'715.0
2018-Sep-16 19:30N 51°07' E 001°35'715.1
2018-Sep-16 19:03N 51°01' E 001°41'116.6
2018-Sep-16 19:00N 51°00' E 001°42'612.4
2018-Sep-16 18:30N 50°58' E 001°51'0 0.2
2018-Sep-16 18:03N 50°58' E 001°51'0 0.0
2018-Sep-16 18:00N 50°58' E 001°51'0 0.2
2018-Sep-16 17:30N 50°58' E 001°51'816.8
2018-Sep-16 17:03N 50°59' E 001°39'120.0
2018-Sep-16 17:00N 50°60' E 001°37'918.6
2018-Sep-16 16:30N 51°05' E 001°26'4 8.7
2018-Sep-16 16:01N 51°07' E 001°20'0 0.0
2018-Sep-16 16:00N 51°07' E 001°20'0 0.2
2018-Sep-16 15:29N 51°07' E 001°20'715.8
2018-Sep-16 15:03N 51°06' E 001°31'119.3
2018-Sep-16 15:01N 51°06' E 001°32'1019.0
2018-Sep-16 14:30N 50°59' E 001°43'5 5.0
2018-Sep-16 13:29N 50°58' E 001°51'1 1.8
2018-Sep-16 13:03N 50°58' E 001°50'118.6
2018-Sep-16 13:00N 50°58' E 001°48'918.0
2018-Sep-16 12:31N 51°01' E 001°35'818.7
2018-Sep-16 12:04N 51°06' E 001°24'118.3
2018-Sep-16 12:00N 51°06' E 001°23'2 2.7
2018-Sep-16 11:16N 51°07' E 001°20'0 1.3
2018-Sep-16 11:03N 51°07' E 001°20'0 2.8
2018-Sep-16 11:00N 51°07' E 001°20'918.1
2018-Sep-16 10:31N 51°03' E 001°33'919.8
2018-Sep-16 10:03N 50°58' E 001°45'119.4
2018-Sep-16 10:00N 50°58' E 001°47'3 5.6
2018-Sep-16 09:30N 50°58' E 001°51'0 0.0
2018-Sep-16 09:00N 50°58' E 001°51'713.5
2018-Sep-16 08:30N 50°59' E 001°41'818.7
2018-Sep-16 08:04N 51°04' E 001°30'119.1
2018-Sep-16 08:00N 51°04' E 001°28'612.3
2018-Sep-16 07:30N 51°07' E 001°20'0 0.0
2018-Sep-16 07:03N 51°07' E 001°20'0 0.0
2018-Sep-16 06:59N 51°07' E 001°20'0 0.0
2018-Sep-16 06:30N 51°07' E 001°20'2 3.3
2018-Sep-16 06:03N 51°07' E 001°22'118.0
2018-Sep-16 06:01N 51°07' E 001°24'918.8
2018-Sep-16 05:30N 51°02' E 001°37'817.7
2018-Sep-16 05:03N 50°58' E 001°48'117.5
2018-Sep-16 05:00N 50°58' E 001°49'2 3.4
2018-Sep-16 04:30N 50°58' E 001°52'0 0.0
2018-Sep-16 04:03N 50°58' E 001°52'0 0.0
2018-Sep-16 04:00N 50°58' E 001°52'0 0.0
2018-Sep-16 03:30N 50°58' E 001°52'0 0.0
2018-Sep-16 03:03N 50°58' E 001°52'0 0.0
2018-Sep-16 03:00N 50°58' E 001°52'0 0.0
2018-Sep-16 02:30N 50°58' E 001°52'0 0.0
2018-Sep-16 02:00N 50°58' E 001°52'0 0.0
2018-Sep-16 01:30N 50°58' E 001°52'0 0.0
2018-Sep-16 01:01N 50°58' E 001°52'0 0.0
2018-Sep-16 01:00N 50°58' E 001°52'0 0.1
2018-Sep-16 00:30N 50°58' E 001°52'0 0.0
2018-Sep-16 00:03N 50°58' E 001°52'0 0.0
2018-Sep-16 00:00N 50°58' E 001°52'0 0.0
2018-Sep-15 23:30N 50°58' E 001°52'0 0.0
2018-Sep-15 23:03N 50°58' E 001°52'0 0.0
2018-Sep-15 23:00N 50°58' E 001°52'0 0.0
2018-Sep-15 22:30N 50°58' E 001°52'0 0.0
2018-Sep-15 22:03N 50°58' E 001°52'0 0.0
2018-Sep-15 22:00N 50°58' E 001°52'0 0.0
2018-Sep-15 21:30N 50°58' E 001°52'0 0.0
2018-Sep-15 21:03N 50°58' E 001°52'0 0.0
2018-Sep-15 21:00N 50°58' E 001°52'0 0.0
2018-Sep-15 20:30N 50°58' E 001°52'0 0.0
2018-Sep-15 20:03N 50°58' E 001°52'0 0.0
2018-Sep-15 20:00N 50°58' E 001°52'0 0.0
2018-Sep-15 19:30N 50°58' E 001°52'0 0.0
2018-Sep-15 19:03N 50°58' E 001°52'0 0.0
2018-Sep-15 19:00N 50°58' E 001°52'0 0.5
2018-Sep-15 18:30N 50°58' E 001°51'0 0.5
2018-Sep-15 17:54N 50°58' E 001°52'2 4.2
2018-Sep-15 17:30N 50°58' E 001°49'919.0
2018-Sep-15 17:03N 50°59' E 001°36'119.5
2018-Sep-15 17:00N 50°60' E 001°34'918.7
2018-Sep-15 16:30N 51°06' E 001°23'2 5.2
2018-Sep-15 16:03N 51°07' E 001°20'0 0.0
2018-Sep-15 15:59N 51°07' E 001°20'0 0.2
2018-Sep-15 15:30N 51°07' E 001°20'714.0
2018-Sep-15 15:01N 51°04' E 001°30'918.6
2018-Sep-15 14:30N 50°59' E 001°42'6 6.7
2018-Sep-15 13:41N 50°58' E 001°51'0 0.0
2018-Sep-15 13:23N 50°58' E 001°51'0 1.1
2018-Sep-15 13:03N 50°58' E 001°51'111.1
2018-Sep-15 13:01N 50°58' E 001°50'918.6
2018-Sep-15 12:30N 51°00' E 001°35'919.3
2018-Sep-15 12:03N 51°06' E 001°24'118.5
2018-Sep-15 12:00N 51°06' E 001°23'2 4.2
2018-Sep-15 11:27N 51°07' E 001°20'0 0.0
2018-Sep-15 11:03N 51°07' E 001°20'0 0.3
2018-Sep-15 10:59N 51°07' E 001°20'714.4
2018-Sep-15 10:31N 51°05' E 001°31'919.3
2018-Sep-15 10:04N 50°60' E 001°41'119.8
2018-Sep-15 10:00N 50°59' E 001°42'5 9.5
2018-Sep-15 09:26N 50°58' E 001°51'0 0.0
2018-Sep-15 09:03N 50°58' E 001°51'0 0.0
2018-Sep-15 08:51N 50°58' E 001°51'310.1
2018-Sep-15 08:30N 50°58' E 001°46'817.0
2018-Sep-15 08:03N 51°01' E 001°34'118.5
2018-Sep-15 08:00N 51°01' E 001°33'1018.3
2018-Sep-15 07:29N 51°07' E 001°21'1 1.4
2018-Sep-15 07:03N 51°07' E 001°20'0 0.0
2018-Sep-15 07:00N 51°07' E 001°20'0 0.0
2018-Sep-15 06:30N 51°07' E 001°20'511.5
2018-Sep-15 06:04N 51°07' E 001°28'116.4
2018-Sep-15 06:01N 51°06' E 001°29'815.7
2018-Sep-15 05:30N 51°01' E 001°39'714.6
2018-Sep-15 05:03N 50°58' E 001°48'115.0
2018-Sep-15 05:01N 50°58' E 001°49'1 1.0
2018-Sep-15 04:00N 50°58' E 001°51'814.4
2018-Sep-15 03:27N 50°59' E 001°38'616.4
2018-Sep-15 03:03N 51°03' E 001°31'116.9
2018-Sep-15 03:00N 51°04' E 001°30'611.8
2018-Sep-15 02:30N 51°07' E 001°22'1 3.1
2018-Sep-15 02:02N 51°07' E 001°20'0 0.0
2018-Sep-15 02:00N 51°07' E 001°20'0 0.0
2018-Sep-15 01:31N 51°07' E 001°20'1 2.9
2018-Sep-15 01:03N 51°07' E 001°22'114.3
2018-Sep-15 01:00N 51°07' E 001°23'816.0
2018-Sep-15 00:30N 51°03' E 001°34'715.5
2018-Sep-15 00:03N 50°59' E 001°43'116.4
2018-Sep-15 00:01N 50°58' E 001°44'5 8.0
2018-Sep-14 23:27N 50°58' E 001°51'0 0.0
2018-Sep-14 23:02N 50°58' E 001°51'0 0.0
2018-Sep-14 22:47N 50°58' E 001°51'1 1.5
2018-Sep-14 22:27N 50°58' E 001°50'716.4
2018-Sep-14 22:03N 50°59' E 001°40'117.8
2018-Sep-14 22:00N 50°59' E 001°39'  

Dump ship's entire track history